createdAt,value
2022-10-26T00:00:03.000Z,0
2022-10-26T00:02:48.000Z,0
2022-10-26T00:05:32.000Z,0
2022-10-26T00:08:17.000Z,0
2022-10-26T00:11:02.000Z,0
2022-10-26T00:13:46.000Z,0
2022-10-26T00:16:31.000Z,0
2022-10-26T00:19:16.000Z,0
2022-10-26T00:22:00.000Z,0
2022-10-26T00:24:45.000Z,0
2022-10-26T00:26:03.000Z,0
2022-10-26T00:27:29.000Z,0
2022-10-26T00:30:14.000Z,0
2022-10-26T00:32:59.000Z,0
2022-10-26T00:35:43.000Z,0
2022-10-26T00:38:28.000Z,0
2022-10-26T00:41:13.000Z,0
2022-10-26T00:43:57.000Z,0
2022-10-26T00:46:42.000Z,0
2022-10-26T00:49:27.000Z,0
2022-10-26T00:52:11.000Z,0
2022-10-26T00:53:29.000Z,0
2022-10-26T00:54:56.000Z,0
2022-10-26T00:57:41.000Z,0
2022-10-26T01:00:25.000Z,0
2022-10-26T01:03:10.000Z,0
2022-10-26T01:05:54.000Z,0
2022-10-26T01:08:39.000Z,0
2022-10-26T01:11:24.000Z,0
2022-10-26T01:14:08.000Z,0
2022-10-26T01:16:53.000Z,0
2022-10-26T01:19:38.000Z,0
2022-10-26T01:20:56.000Z,0
2022-10-26T01:22:22.000Z,0
2022-10-26T01:25:07.000Z,0
2022-10-26T01:27:52.000Z,0
2022-10-26T01:30:36.000Z,0
2022-10-26T01:33:21.000Z,0
2022-10-26T01:36:06.000Z,0
2022-10-26T01:38:50.000Z,0
2022-10-26T01:41:35.000Z,0
2022-10-26T01:44:19.000Z,0
2022-10-26T01:47:04.000Z,0
2022-10-26T01:48:22.000Z,0
2022-10-26T01:49:49.000Z,0
2022-10-26T01:52:33.000Z,0
2022-10-26T01:55:18.000Z,0
2022-10-26T01:58:03.000Z,0
2022-10-26T02:00:47.000Z,0
2022-10-26T02:03:32.000Z,0
2022-10-26T02:06:17.000Z,0
2022-10-26T02:09:01.000Z,0
2022-10-26T02:11:46.000Z,0
2022-10-26T02:14:30.000Z,0
2022-10-26T02:15:48.000Z,0
2022-10-26T02:17:15.000Z,0
2022-10-26T02:20:00.000Z,0
2022-10-26T02:22:44.000Z,0
2022-10-26T02:25:29.000Z,0
2022-10-26T02:28:14.000Z,0
2022-10-26T02:30:58.000Z,0
2022-10-26T02:33:43.000Z,0
2022-10-26T02:36:28.000Z,0
2022-10-26T02:39:12.000Z,0
2022-10-26T02:41:57.000Z,0
2022-10-26T02:43:15.000Z,0
2022-10-26T02:44:42.000Z,0
2022-10-26T02:47:26.000Z,0
2022-10-26T02:50:11.000Z,0
2022-10-26T02:52:55.000Z,0
2022-10-26T02:55:40.000Z,0
2022-10-26T02:58:25.000Z,0
2022-10-26T03:01:09.000Z,0
2022-10-26T03:03:54.000Z,0
2022-10-26T03:06:39.000Z,0
2022-10-26T03:09:23.000Z,0
2022-10-26T03:10:41.000Z,0
2022-10-26T03:12:08.000Z,0
2022-10-26T03:14:53.000Z,0
2022-10-26T03:17:37.000Z,0
2022-10-26T03:20:22.000Z,0
2022-10-26T03:23:06.000Z,0
2022-10-26T03:25:51.000Z,0
2022-10-26T03:28:36.000Z,0
2022-10-26T03:31:20.000Z,0
2022-10-26T03:34:05.000Z,0
2022-10-26T03:36:50.000Z,0
2022-10-26T03:38:08.000Z,0
2022-10-26T03:39:34.000Z,0
2022-10-26T03:42:19.000Z,0
2022-10-26T03:45:04.000Z,0
2022-10-26T03:47:48.000Z,0
2022-10-26T03:50:33.000Z,0
2022-10-26T03:53:18.000Z,0
2022-10-26T03:56:02.000Z,0
2022-10-26T03:58:47.000Z,0
2022-10-26T04:01:31.000Z,0
2022-10-26T04:04:16.000Z,0
2022-10-26T04:07:01.000Z,0
2022-10-26T04:09:45.000Z,0
2022-10-26T04:12:30.000Z,0
2022-10-26T04:15:15.000Z,0
2022-10-26T04:17:59.000Z,0
2022-10-26T04:20:44.000Z,0
2022-10-26T04:23:29.000Z,0
2022-10-26T04:26:13.000Z,0
2022-10-26T04:28:58.000Z,0
2022-10-26T04:31:43.000Z,0
2022-10-26T04:33:01.000Z,0
2022-10-26T04:34:27.000Z,0
2022-10-26T04:37:12.000Z,0
2022-10-26T04:39:56.000Z,0
2022-10-26T04:42:41.000Z,0
2022-10-26T04:45:26.000Z,0
2022-10-26T04:48:10.000Z,0
2022-10-26T04:50:55.000Z,0
2022-10-26T04:53:40.000Z,0
2022-10-26T04:56:24.000Z,0
2022-10-26T04:59:09.000Z,0
2022-10-26T05:00:27.000Z,0
2022-10-26T05:01:54.000Z,0
2022-10-26T05:04:38.000Z,0
2022-10-26T05:07:23.000Z,0
2022-10-26T05:10:07.000Z,0
2022-10-26T05:12:52.000Z,0
2022-10-26T05:15:53.000Z,0
2022-10-26T05:18:38.000Z,0
2022-10-26T05:21:22.000Z,0
2022-10-26T05:24:07.000Z,0
2022-10-26T05:26:52.000Z,0
2022-10-26T05:28:09.000Z,0
2022-10-26T05:29:36.000Z,0
2022-10-26T05:32:21.000Z,0
2022-10-26T05:35:06.000Z,0
2022-10-26T05:37:50.000Z,0
2022-10-26T05:40:35.000Z,0
2022-10-26T05:43:20.000Z,0
2022-10-26T05:46:04.000Z,0
2022-10-26T05:48:49.000Z,0
2022-10-26T05:51:33.000Z,4
2022-10-26T05:54:18.000Z,4
2022-10-26T05:55:36.000Z,4
2022-10-26T05:57:03.000Z,4
2022-10-26T05:59:47.000Z,4
2022-10-26T06:02:32.000Z,8
2022-10-26T06:05:17.000Z,12
2022-10-26T06:08:01.000Z,12
2022-10-26T06:10:46.000Z,20
2022-10-26T06:13:31.000Z,20
2022-10-26T06:16:15.000Z,32
2022-10-26T06:19:00.000Z,40
2022-10-26T06:21:45.000Z,48
2022-10-26T06:24:29.000Z,64
2022-10-26T06:27:14.000Z,68
2022-10-26T06:29:58.000Z,84
2022-10-26T06:32:43.000Z,112
2022-10-26T06:35:28.000Z,160
2022-10-26T06:38:12.000Z,236
2022-10-26T06:40:57.000Z,352
2022-10-26T06:43:42.000Z,440
2022-10-26T06:46:26.000Z,552
2022-10-26T06:49:11.000Z,592
2022-10-26T06:50:29.000Z,596
2022-10-26T06:51:56.000Z,612
2022-10-26T06:54:40.000Z,624
2022-10-26T06:57:25.000Z,656
2022-10-26T07:00:09.000Z,644
2022-10-26T07:02:54.000Z,588
2022-10-26T07:05:39.000Z,604
2022-10-26T07:08:23.000Z,532
2022-10-26T07:11:08.000Z,540
2022-10-26T07:13:53.000Z,512
2022-10-26T07:16:37.000Z,528
2022-10-26T07:17:55.000Z,788
2022-10-26T07:19:22.000Z,1008
2022-10-26T07:22:07.000Z,1936
2022-10-26T07:27:36.000Z,1712
2022-10-26T07:30:21.000Z,428
2022-10-26T07:33:05.000Z,464
2022-10-26T07:35:50.000Z,536
2022-10-26T07:38:34.000Z,648
2022-10-26T07:41:19.000Z,708
2022-10-26T07:44:04.000Z,820
2022-10-26T07:45:22.000Z,884
2022-10-26T07:46:48.000Z,956
2022-10-26T07:49:33.000Z,1004
2022-10-26T07:52:18.000Z,1248
2022-10-26T07:55:02.000Z,1360
2022-10-26T07:57:47.000Z,1172
2022-10-26T08:00:32.000Z,1056
2022-10-26T08:03:16.000Z,1080
2022-10-26T08:06:01.000Z,800
2022-10-26T08:08:46.000Z,876
2022-10-26T08:11:30.000Z,1216
2022-10-26T08:12:48.000Z,1328
2022-10-26T08:14:15.000Z,1144
2022-10-26T08:16:59.000Z,1112
2022-10-26T08:19:44.000Z,1364
2022-10-26T08:22:29.000Z,2640
2022-10-26T08:25:13.000Z,2368
2022-10-26T08:27:58.000Z,2628
2022-10-26T08:30:43.000Z,4428
2022-10-26T08:33:27.000Z,4340
2022-10-26T08:36:12.000Z,5912
2022-10-26T08:38:57.000Z,5464
2022-10-26T08:40:14.000Z,3944
2022-10-26T08:41:41.000Z,3364
2022-10-26T08:44:26.000Z,3296
2022-10-26T08:47:10.000Z,16480
2022-10-26T08:49:55.000Z,15284
2022-10-26T08:52:40.000Z,31936
2022-10-26T08:55:24.000Z,7732
2022-10-26T08:58:09.000Z,7896
2022-10-26T09:00:54.000Z,4032
2022-10-26T09:03:38.000Z,4508
2022-10-26T09:06:23.000Z,3772
2022-10-26T09:07:41.000Z,3864
2022-10-26T09:09:08.000Z,4068
2022-10-26T09:11:52.000Z,4180
2022-10-26T09:14:37.000Z,3848
2022-10-26T09:17:22.000Z,4208
2022-10-26T09:20:06.000Z,4824
2022-10-26T09:22:51.000Z,4468
2022-10-26T09:25:35.000Z,3808
2022-10-26T09:28:20.000Z,3284
2022-10-26T09:31:05.000Z,3804
2022-10-26T09:33:49.000Z,8540
2022-10-26T09:35:07.000Z,6916
2022-10-26T09:36:34.000Z,6760
2022-10-26T09:39:19.000Z,6560
2022-10-26T09:42:03.000Z,4880
2022-10-26T09:44:48.000Z,3992
2022-10-26T09:47:33.000Z,2572
2022-10-26T09:50:17.000Z,4016
2022-10-26T09:53:02.000Z,6944
2022-10-26T09:55:46.000Z,2984
2022-10-26T09:58:31.000Z,3512
2022-10-26T10:01:16.000Z,3740
2022-10-26T10:02:34.000Z,3704
2022-10-26T10:04:00.000Z,2724
2022-10-26T10:06:45.000Z,4396
2022-10-26T10:09:30.000Z,2540
2022-10-26T10:12:14.000Z,3480
2022-10-26T10:14:59.000Z,2820
2022-10-26T10:17:44.000Z,648
2022-10-26T10:20:28.000Z,5280
2022-10-26T10:23:13.000Z,4168
2022-10-26T10:25:58.000Z,5316
2022-10-26T10:28:42.000Z,4992
2022-10-26T10:30:00.000Z,5440
2022-10-26T10:31:27.000Z,6444
2022-10-26T10:34:11.000Z,6896
2022-10-26T10:36:56.000Z,7584
2022-10-26T10:39:41.000Z,7304
2022-10-26T10:42:25.000Z,8112
2022-10-26T10:45:10.000Z,7676
2022-10-26T10:47:55.000Z,6456
2022-10-26T10:50:39.000Z,5768
2022-10-26T10:53:24.000Z,4376
2022-10-26T10:56:09.000Z,4008
2022-10-26T10:57:27.000Z,3412
2022-10-26T10:58:53.000Z,3320
2022-10-26T11:01:38.000Z,3196
2022-10-26T11:04:23.000Z,3912
2022-10-26T11:07:07.000Z,5852
2022-10-26T11:09:52.000Z,6624
2022-10-26T11:12:36.000Z,5792
2022-10-26T11:15:21.000Z,4376
2022-10-26T11:18:06.000Z,5932
2022-10-26T11:20:50.000Z,3888
2022-10-26T11:23:35.000Z,2972
2022-10-26T11:24:53.000Z,2544
2022-10-26T11:26:20.000Z,4112
2022-10-26T11:29:04.000Z,4636
2022-10-26T11:31:49.000Z,3220
2022-10-26T11:34:34.000Z,2836
2022-10-26T11:37:18.000Z,2520
2022-10-26T11:40:03.000Z,2148
2022-10-26T11:42:47.000Z,832
2022-10-26T11:48:17.000Z,512
2022-10-26T11:51:01.000Z,2320
2022-10-26T11:52:19.000Z,2600
2022-10-26T11:53:46.000Z,956
2022-10-26T11:56:31.000Z,2160
2022-10-26T11:59:15.000Z,1228
2022-10-26T12:02:00.000Z,616
2022-10-26T12:04:45.000Z,2060
2022-10-26T12:07:29.000Z,1464
2022-10-26T12:10:14.000Z,596
2022-10-26T12:12:59.000Z,584
2022-10-26T12:15:43.000Z,568
2022-10-26T12:18:28.000Z,2400
2022-10-26T12:19:46.000Z,1744
2022-10-26T12:23:57.000Z,2104
2022-10-26T12:26:42.000Z,468
2022-10-26T12:29:26.000Z,1948
2022-10-26T12:32:11.000Z,1440
2022-10-26T12:34:56.000Z,1992
2022-10-26T12:37:40.000Z,1264
2022-10-26T12:40:25.000Z,1012
2022-10-26T12:45:54.000Z,2700
2022-10-26T12:47:12.000Z,5796
2022-10-26T12:48:39.000Z,3372
2022-10-26T12:51:23.000Z,3240
2022-10-26T12:54:08.000Z,3648
2022-10-26T12:56:53.000Z,3684
2022-10-26T12:59:37.000Z,744
2022-10-26T13:02:22.000Z,780
2022-10-26T13:05:07.000Z,636
2022-10-26T13:07:51.000Z,1128
2022-10-26T13:10:36.000Z,468
2022-10-26T13:13:21.000Z,1228
2022-10-26T13:14:39.000Z,1452
2022-10-26T13:16:05.000Z,1560
2022-10-26T13:18:50.000Z,612
2022-10-26T13:21:35.000Z,1500
2022-10-26T13:24:19.000Z,1964
2022-10-26T13:27:04.000Z,1924
2022-10-26T13:29:48.000Z,1268
2022-10-26T13:32:33.000Z,1544
2022-10-26T13:35:18.000Z,1964
2022-10-26T13:38:02.000Z,1700
2022-10-26T13:40:47.000Z,1108
2022-10-26T13:42:05.000Z,964
2022-10-26T13:43:32.000Z,580
2022-10-26T13:46:16.000Z,1092
2022-10-26T13:49:01.000Z,1092
2022-10-26T13:51:46.000Z,892
2022-10-26T13:54:30.000Z,1352
2022-10-26T13:57:31.000Z,1168
2022-10-26T14:00:16.000Z,1084
2022-10-26T14:03:01.000Z,1344
2022-10-26T14:08:30.000Z,984
2022-10-26T14:09:47.000Z,660
2022-10-26T14:11:14.000Z,700
2022-10-26T14:16:44.000Z,668
2022-10-26T14:19:28.000Z,496
2022-10-26T14:24:58.000Z,800
2022-10-26T14:27:42.000Z,744
2022-10-26T14:30:27.000Z,532
2022-10-26T14:33:12.000Z,468
2022-10-26T14:35:56.000Z,784
2022-10-26T14:37:14.000Z,428
2022-10-26T14:38:57.000Z,1040
2022-10-26T14:41:42.000Z,856
2022-10-26T14:44:26.000Z,960
2022-10-26T14:47:11.000Z,604
2022-10-26T14:49:56.000Z,688
2022-10-26T14:52:40.000Z,936
2022-10-26T14:58:10.000Z,500
2022-10-26T15:00:54.000Z,340
2022-10-26T15:03:39.000Z,552
2022-10-26T15:04:57.000Z,740
2022-10-26T15:06:24.000Z,420
2022-10-26T15:09:08.000Z,600
2022-10-26T15:11:53.000Z,524
2022-10-26T15:14:38.000Z,196
2022-10-26T15:17:22.000Z,544
2022-10-26T15:20:07.000Z,380
2022-10-26T15:22:51.000Z,264
2022-10-26T15:25:36.000Z,404
2022-10-26T15:28:21.000Z,376
2022-10-26T15:31:05.000Z,356
2022-10-26T15:32:23.000Z,396
2022-10-26T15:33:50.000Z,252
2022-10-26T15:36:35.000Z,336
2022-10-26T15:39:19.000Z,364
2022-10-26T15:44:49.000Z,280
2022-10-26T15:47:33.000Z,284
2022-10-26T15:50:18.000Z,244
2022-10-26T15:53:03.000Z,232
2022-10-26T15:55:47.000Z,200
2022-10-26T15:58:32.000Z,172
2022-10-26T16:01:16.000Z,144
2022-10-26T16:02:34.000Z,116
2022-10-26T16:04:01.000Z,104
2022-10-26T16:06:46.000Z,92
2022-10-26T16:09:30.000Z,76
2022-10-26T16:12:15.000Z,56
2022-10-26T16:15:00.000Z,48
2022-10-26T16:17:44.000Z,36
2022-10-26T16:20:29.000Z,28
2022-10-26T16:23:14.000Z,20
2022-10-26T16:25:58.000Z,16
2022-10-26T16:28:43.000Z,12
2022-10-26T16:30:01.000Z,4
2022-10-26T16:31:27.000Z,8
2022-10-26T16:34:12.000Z,0
2022-10-26T16:36:57.000Z,0
2022-10-26T16:39:41.000Z,0
2022-10-26T16:42:26.000Z,0
2022-10-26T16:45:11.000Z,0
2022-10-26T16:47:55.000Z,0
2022-10-26T16:50:40.000Z,0
2022-10-26T16:53:25.000Z,0
2022-10-26T16:56:09.000Z,0
2022-10-26T16:57:27.000Z,0
2022-10-26T16:58:54.000Z,0
2022-10-26T17:01:39.000Z,0
2022-10-26T17:04:23.000Z,0
2022-10-26T17:07:08.000Z,0
2022-10-26T17:09:52.000Z,0
2022-10-26T17:12:37.000Z,0
2022-10-26T17:15:22.000Z,0
2022-10-26T17:18:06.000Z,0
2022-10-26T17:20:51.000Z,0
2022-10-26T17:23:36.000Z,0
2022-10-26T17:24:53.000Z,0
2022-10-26T17:26:20.000Z,0
2022-10-26T17:29:05.000Z,0
2022-10-26T17:31:50.000Z,0
2022-10-26T17:34:34.000Z,0
2022-10-26T17:37:19.000Z,0
2022-10-26T17:40:03.000Z,0
2022-10-26T17:42:48.000Z,0
2022-10-26T17:45:33.000Z,0
2022-10-26T17:48:17.000Z,0
2022-10-26T17:51:02.000Z,0
2022-10-26T17:52:20.000Z,0
2022-10-26T17:53:47.000Z,0
2022-10-26T17:56:31.000Z,0
2022-10-26T17:59:16.000Z,0
2022-10-26T18:02:01.000Z,0
2022-10-26T18:04:45.000Z,0
2022-10-26T18:07:30.000Z,0
2022-10-26T18:10:15.000Z,0
2022-10-26T18:12:59.000Z,0
2022-10-26T18:15:44.000Z,0
2022-10-26T18:18:28.000Z,0
2022-10-26T18:19:46.000Z,0
2022-10-26T18:21:13.000Z,0
2022-10-26T18:23:58.000Z,0
2022-10-26T18:26:42.000Z,0
2022-10-26T18:29:27.000Z,0
2022-10-26T18:32:12.000Z,0
2022-10-26T18:34:56.000Z,0
2022-10-26T18:37:41.000Z,0
2022-10-26T18:40:26.000Z,0
2022-10-26T18:43:10.000Z,0
2022-10-26T18:45:55.000Z,0
2022-10-26T18:47:13.000Z,0
2022-10-26T18:48:39.000Z,0
2022-10-26T18:51:24.000Z,0
2022-10-26T18:54:09.000Z,0
2022-10-26T18:56:53.000Z,0
2022-10-26T18:59:38.000Z,0
2022-10-26T19:02:23.000Z,0
2022-10-26T19:05:07.000Z,0
2022-10-26T19:07:52.000Z,0
2022-10-26T19:10:37.000Z,0
2022-10-26T19:13:21.000Z,0
2022-10-26T19:14:39.000Z,0
2022-10-26T19:16:06.000Z,0
2022-10-26T19:18:51.000Z,0
2022-10-26T19:21:35.000Z,0
2022-10-26T19:24:20.000Z,0
2022-10-26T19:27:04.000Z,0
2022-10-26T19:29:49.000Z,0
2022-10-26T19:32:34.000Z,0
2022-10-26T19:35:18.000Z,0
2022-10-26T19:38:03.000Z,0
2022-10-26T19:40:48.000Z,0
2022-10-26T19:42:06.000Z,0
2022-10-26T19:43:32.000Z,0
2022-10-26T19:46:17.000Z,0
2022-10-26T19:49:02.000Z,0
2022-10-26T19:51:46.000Z,0
2022-10-26T19:54:31.000Z,0
2022-10-26T19:57:16.000Z,0
2022-10-26T20:00:00.000Z,0
2022-10-26T20:02:45.000Z,0
2022-10-26T20:05:29.000Z,0
2022-10-26T20:08:14.000Z,0
2022-10-26T20:09:32.000Z,0
2022-10-26T20:10:59.000Z,0
2022-10-26T20:13:43.000Z,0
2022-10-26T20:16:28.000Z,0
2022-10-26T20:19:13.000Z,0
2022-10-26T20:21:57.000Z,0
2022-10-26T20:24:42.000Z,0
2022-10-26T20:27:27.000Z,0
2022-10-26T20:30:11.000Z,0
2022-10-26T20:32:56.000Z,0
2022-10-26T20:35:40.000Z,0
2022-10-26T20:36:58.000Z,0
2022-10-26T20:38:25.000Z,0
2022-10-26T20:41:10.000Z,0
2022-10-26T20:43:54.000Z,0
2022-10-26T20:46:39.000Z,0
2022-10-26T20:49:24.000Z,0
2022-10-26T20:52:08.000Z,0
2022-10-26T20:54:53.000Z,0
2022-10-26T20:57:38.000Z,0
2022-10-26T21:00:22.000Z,0
2022-10-26T21:03:07.000Z,0
2022-10-26T21:04:25.000Z,0
2022-10-26T21:05:52.000Z,0
2022-10-26T21:08:36.000Z,0
2022-10-26T21:11:21.000Z,0
2022-10-26T21:14:05.000Z,0
2022-10-26T21:16:50.000Z,0
2022-10-26T21:19:35.000Z,0
2022-10-26T21:22:19.000Z,0
2022-10-26T21:25:04.000Z,0
2022-10-26T21:27:49.000Z,0
2022-10-26T21:30:33.000Z,0
2022-10-26T21:31:51.000Z,0
2022-10-26T21:33:18.000Z,0
2022-10-26T21:36:03.000Z,0
2022-10-26T21:38:47.000Z,0
2022-10-26T21:41:32.000Z,0
2022-10-26T21:44:16.000Z,0
2022-10-26T21:47:01.000Z,0
2022-10-26T21:49:46.000Z,0
2022-10-26T21:52:30.000Z,0
2022-10-26T21:55:15.000Z,0
2022-10-26T21:58:00.000Z,0
2022-10-26T21:59:18.000Z,0
2022-10-26T22:00:44.000Z,0
2022-10-26T22:03:29.000Z,0
2022-10-26T22:06:14.000Z,0
2022-10-26T22:08:58.000Z,0
2022-10-26T22:11:43.000Z,0
2022-10-26T22:17:12.000Z,0
2022-10-26T22:19:57.000Z,0
2022-10-26T22:22:58.000Z,0
2022-10-26T22:25:42.000Z,0
2022-10-26T22:27:00.000Z,0
2022-10-26T22:28:27.000Z,0
2022-10-26T22:31:12.000Z,0
2022-10-26T22:33:56.000Z,0
2022-10-26T22:36:41.000Z,0
2022-10-26T22:39:26.000Z,0
2022-10-26T22:42:10.000Z,0
2022-10-26T22:44:55.000Z,0
2022-10-26T22:47:40.000Z,0
2022-10-26T22:50:24.000Z,0
2022-10-26T22:53:09.000Z,0
2022-10-26T22:54:27.000Z,0
2022-10-26T22:55:54.000Z,0
2022-10-26T22:58:38.000Z,0
2022-10-26T23:01:23.000Z,0
2022-10-26T23:04:07.000Z,0
2022-10-26T23:06:52.000Z,0
2022-10-26T23:09:37.000Z,0
2022-10-26T23:12:21.000Z,0
2022-10-26T23:15:06.000Z,0
2022-10-26T23:17:51.000Z,0
2022-10-26T23:20:35.000Z,0
2022-10-26T23:21:53.000Z,0
2022-10-26T23:23:20.000Z,0
2022-10-26T23:26:05.000Z,0
2022-10-26T23:28:49.000Z,0
2022-10-26T23:31:34.000Z,0
2022-10-26T23:34:18.000Z,0
2022-10-26T23:37:03.000Z,0
2022-10-26T23:39:48.000Z,0
2022-10-26T23:42:32.000Z,0
2022-10-26T23:45:17.000Z,0
2022-10-26T23:48:02.000Z,0
2022-10-26T23:49:19.000Z,0
2022-10-26T23:50:46.000Z,0
2022-10-26T23:53:31.000Z,0
2022-10-26T23:56:16.000Z,0
2022-10-26T23:59:00.000Z,0
